Terminal Aerodrome Forecast
Issued by NWS Blacksburg, VA

Current Version | Previous Version | Graphics & Text | Print | Product List | Glossary On
Versions: 1 2 3 4 5 6 7 8 9 10 11 12 13 14 15 16 17 18 19
000
FTUS41 KRNK 230257 AAD
TAFBLF
TAF AMD
KBLF 230257Z 2303/2324 00000KT 6SM BR FEW002 OVC060
      TEMPO 2303/2306 4SM -SHRA OVC015
     FM230600 21009KT P6SM VCSH OVC025
     FM231200 23011KT P6SM OVC040
     FM232100 24014G23KT P6SM BKN090=

USA.gov is the U.S. government's official web portal to all federal, state and local government web resources and services.